createdAt,value
2023-10-04T00:02:07.420Z,12.60
2023-10-04T00:04:34.273Z,12.61
2023-10-04T00:07:01.969Z,12.62
2023-10-04T00:09:28.643Z,12.68
2023-10-04T00:11:55.391Z,12.71
2023-10-04T00:14:21.868Z,12.71
2023-10-04T00:16:48.449Z,12.69
2023-10-04T00:19:15.063Z,12.69
2023-10-04T00:21:41.739Z,12.71
2023-10-04T00:24:08.613Z,12.73
2023-10-04T00:26:35.237Z,12.74
2023-10-04T00:29:01.872Z,12.75
2023-10-04T00:31:28.547Z,12.77
2023-10-04T00:33:55.194Z,12.80
2023-10-04T00:36:21.826Z,12.78
2023-10-04T00:38:48.432Z,12.81
2023-10-04T00:41:15.015Z,12.79
2023-10-04T00:43:51.214Z,12.75
2023-10-04T00:46:20.928Z,12.73
2023-10-04T00:48:47.854Z,12.76
2023-10-04T00:51:14.856Z,12.72
2023-10-04T00:53:41.931Z,12.71
2023-10-04T00:56:11.581Z,12.69
2023-10-04T00:58:38.003Z,12.64
2023-10-04T01:01:04.722Z,12.62
2023-10-04T01:03:31.416Z,12.70
2023-10-04T01:05:58.125Z,12.75
2023-10-04T01:08:24.726Z,12.77
2023-10-04T01:10:51.778Z,12.76
2023-10-04T01:13:18.821Z,12.72
2023-10-04T01:15:45.468Z,12.67
2023-10-04T01:18:13.220Z,12.64
2023-10-04T01:20:40.048Z,12.65
2023-10-04T01:23:07.585Z,12.61
2023-10-04T01:25:35.569Z,12.62
2023-10-04T01:28:03.771Z,12.58
2023-10-04T01:30:30.564Z,12.61
2023-10-04T01:32:57.466Z,12.57
2023-10-04T01:35:24.120Z,12.57
2023-10-04T01:37:51.609Z,12.55
2023-10-04T01:40:18.792Z,12.56
2023-10-04T01:42:45.415Z,12.52
2023-10-04T01:45:12.387Z,12.50
2023-10-04T01:47:39.263Z,12.51
2023-10-04T01:50:07.031Z,12.52
2023-10-04T01:52:33.587Z,12.52
2023-10-04T01:55:00.266Z,12.52
2023-10-04T01:57:26.874Z,12.53
2023-10-04T01:59:53.441Z,12.59
2023-10-04T02:02:20.027Z,12.63
2023-10-04T02:04:46.654Z,12.60
2023-10-04T02:07:13.200Z,12.62
2023-10-04T02:09:39.759Z,12.61
2023-10-04T02:12:06.517Z,12.59
2023-10-04T02:14:33.118Z,12.57
2023-10-04T02:16:59.744Z,12.53
2023-10-04T02:19:26.347Z,12.53
2023-10-04T02:21:52.951Z,12.57
2023-10-04T02:24:19.606Z,12.52
2023-10-04T02:26:46.157Z,12.53
2023-10-04T02:29:12.735Z,12.51
2023-10-04T02:31:39.320Z,12.56
2023-10-04T02:34:05.926Z,12.51
2023-10-04T02:36:32.553Z,12.53
2023-10-04T02:38:59.182Z,12.52
2023-10-04T02:41:25.776Z,12.55
2023-10-04T02:43:52.429Z,12.56
2023-10-04T02:46:19.064Z,12.57
2023-10-04T02:48:45.726Z,12.56
2023-10-04T02:51:12.324Z,12.59
2023-10-04T02:53:38.882Z,12.59
2023-10-04T02:56:06.969Z,12.57
2023-10-04T02:58:33.570Z,12.52
2023-10-04T03:01:00.198Z,12.52
2023-10-04T03:03:27.082Z,12.50
2023-10-04T03:05:55.486Z,12.54
2023-10-04T03:08:22.134Z,12.52
2023-10-04T03:10:48.629Z,12.47
2023-10-04T03:13:15.216Z,12.46
2023-10-04T03:15:41.770Z,12.47
2023-10-04T03:18:08.573Z,12.43
2023-10-04T03:20:35.212Z,12.43
2023-10-04T03:23:01.937Z,12.46
2023-10-04T03:25:28.449Z,12.43
2023-10-04T03:27:55.148Z,12.41
2023-10-04T03:30:21.889Z,12.36
2023-10-04T03:32:49.790Z,12.34
2023-10-04T03:35:16.443Z,12.32
2023-10-04T03:37:43.403Z,12.35
2023-10-04T03:40:10.066Z,12.33
2023-10-04T03:42:36.623Z,12.34
2023-10-04T03:45:03.336Z,12.30
2023-10-04T03:47:29.973Z,12.26
2023-10-04T03:49:56.467Z,12.29
2023-10-04T03:52:23.080Z,12.30
2023-10-04T03:54:49.629Z,12.35
2023-10-04T03:57:16.223Z,12.36
2023-10-04T03:59:42.854Z,12.34
2023-10-04T04:02:09.454Z,12.29
2023-10-04T04:04:36.216Z,12.27
2023-10-04T04:07:02.945Z,12.28
2023-10-04T04:09:29.576Z,12.27
2023-10-04T04:11:56.160Z,12.26
2023-10-04T04:14:23.203Z,12.26
2023-10-04T04:16:49.980Z,12.27
2023-10-04T04:19:16.594Z,12.25
2023-10-04T04:21:43.235Z,12.25
2023-10-04T04:24:09.940Z,12.24
2023-10-04T04:26:36.600Z,12.22
2023-10-04T04:29:03.366Z,12.21
2023-10-04T04:31:30.629Z,12.24
2023-10-04T04:33:57.299Z,12.25
2023-10-04T04:36:23.984Z,12.28
2023-10-04T04:38:50.516Z,12.28
2023-10-04T04:41:17.038Z,12.26
2023-10-04T04:43:43.581Z,12.24
2023-10-04T04:46:10.238Z,12.29
2023-10-04T04:48:39.736Z,12.29
2023-10-04T04:51:07.505Z,12.27
2023-10-04T04:53:34.117Z,12.28
2023-10-04T04:56:00.690Z,12.27
2023-10-04T04:58:27.259Z,12.24
2023-10-04T05:00:53.897Z,12.22
2023-10-04T05:03:20.534Z,12.23
2023-10-04T05:05:47.088Z,12.25
2023-10-04T05:08:13.698Z,12.22
2023-10-04T05:10:40.297Z,12.20
2023-10-04T05:13:06.970Z,12.23
2023-10-04T05:15:33.756Z,12.24
2023-10-04T05:18:00.925Z,12.24
2023-10-04T05:20:27.850Z,12.20
2023-10-04T05:22:54.452Z,12.19
2023-10-04T05:25:20.992Z,12.15
2023-10-04T05:27:50.307Z,12.17
2023-10-04T05:30:17.377Z,12.19
2023-10-04T05:32:44.943Z,12.18
2023-10-04T05:35:11.545Z,12.23
2023-10-04T05:37:38.144Z,12.18
2023-10-04T05:40:05.055Z,12.22
2023-10-04T05:42:31.698Z,12.24
2023-10-04T05:44:58.332Z,12.23
2023-10-04T05:47:24.871Z,12.21
2023-10-04T05:49:51.452Z,12.25
2023-10-04T05:52:17.926Z,12.28
2023-10-04T05:54:44.494Z,12.27
2023-10-04T05:57:11.061Z,12.25
2023-10-04T05:59:37.646Z,12.22
2023-10-04T06:02:04.226Z,12.23
2023-10-04T06:04:30.857Z,12.24
2023-10-04T06:06:57.442Z,12.22
2023-10-04T06:09:24.039Z,12.28
2023-10-04T06:11:50.536Z,12.31
2023-10-04T06:14:18.234Z,12.35
2023-10-04T06:16:44.983Z,12.41
2023-10-04T06:19:23.584Z,12.43
2023-10-04T06:21:55.685Z,12.44
2023-10-04T06:24:22.205Z,12.44
2023-10-04T06:26:48.907Z,12.46
2023-10-04T06:29:15.543Z,12.44
2023-10-04T06:31:42.207Z,12.44
2023-10-04T06:34:08.801Z,12.48
2023-10-04T06:36:35.450Z,12.50
2023-10-04T06:39:02.192Z,12.49
2023-10-04T06:41:29.192Z,12.54
2023-10-04T06:43:55.773Z,12.56
2023-10-04T06:46:22.366Z,12.59
2023-10-04T06:48:48.997Z,12.63
2023-10-04T06:51:15.657Z,12.69
2023-10-04T06:53:42.265Z,12.75
2023-10-04T06:56:08.844Z,12.79
2023-10-04T06:58:35.449Z,12.83
2023-10-04T07:01:03.159Z,12.85
2023-10-04T07:03:31.801Z,12.90
2023-10-04T07:05:58.415Z,12.89
2023-10-04T07:08:25.004Z,12.84
2023-10-04T07:10:51.584Z,12.86
2023-10-04T07:13:18.132Z,12.89
2023-10-04T07:15:44.971Z,12.83
2023-10-04T07:18:12.681Z,12.88
2023-10-04T07:20:39.967Z,12.98
2023-10-04T07:23:07.871Z,13.05
2023-10-04T07:25:35.495Z,13.10
2023-10-04T07:28:03.371Z,13.13
2023-10-04T07:30:30.943Z,13.13
2023-10-04T07:32:57.518Z,13.15
2023-10-04T07:35:24.139Z,13.20
2023-10-04T07:37:50.807Z,13.21
2023-10-04T07:40:17.470Z,13.21
2023-10-04T07:42:47.443Z,13.26
2023-10-04T07:45:15.123Z,13.30
2023-10-04T07:47:42.177Z,13.36
2023-10-04T07:50:10.423Z,13.45
2023-10-04T07:52:40.446Z,13.51
2023-10-04T07:55:07.657Z,13.59
2023-10-04T07:57:34.308Z,13.60
2023-10-04T08:00:00.893Z,13.62
2023-10-04T08:02:27.489Z,13.64
2023-10-04T08:04:54.095Z,13.66
2023-10-04T08:07:20.649Z,13.73
2023-10-04T08:09:47.230Z,13.74
2023-10-04T08:12:13.835Z,13.81
2023-10-04T08:14:40.407Z,13.85
2023-10-04T08:17:07.279Z,13.93
2023-10-04T08:19:34.390Z,13.98
2023-10-04T08:22:00.987Z,14.00
2023-10-04T08:24:27.699Z,14.06
2023-10-04T08:26:55.137Z,14.08
2023-10-04T08:29:23.167Z,14.14
2023-10-04T08:31:49.738Z,14.22
2023-10-04T08:34:16.328Z,14.32
2023-10-04T08:36:42.979Z,14.29
2023-10-04T08:39:09.558Z,14.32
2023-10-04T08:41:36.099Z,14.36
2023-10-04T08:44:02.960Z,14.41
2023-10-04T08:46:29.721Z,14.45
2023-10-04T08:48:56.605Z,14.46
2023-10-04T08:51:28.942Z,14.49
2023-10-04T08:54:14.399Z,14.64
2023-10-04T08:57:06.742Z,14.69
2023-10-04T08:59:33.876Z,14.77
2023-10-04T09:02:00.832Z,14.83
2023-10-04T09:04:27.482Z,14.89
2023-10-04T09:06:54.126Z,15.00
2023-10-04T09:09:20.868Z,15.10
2023-10-04T09:11:47.732Z,15.15
2023-10-04T09:14:14.317Z,15.14
2023-10-04T09:16:41.034Z,15.18
2023-10-04T09:19:09.132Z,15.19
2023-10-04T09:21:38.796Z,15.27
2023-10-04T09:24:09.513Z,15.37
2023-10-04T09:26:40.277Z,15.42
2023-10-04T09:29:06.835Z,15.43
2023-10-04T09:31:51.911Z,15.46
2023-10-04T09:34:18.753Z,15.46
2023-10-04T09:36:45.322Z,15.50
2023-10-04T09:39:12.206Z,15.58
2023-10-04T09:41:40.350Z,15.61
2023-10-04T09:44:18.512Z,15.68
2023-10-04T09:46:49.440Z,15.73
2023-10-04T09:49:16.075Z,15.76
2023-10-04T09:51:43.246Z,15.78
2023-10-04T09:54:09.856Z,15.86
2023-10-04T09:56:44.425Z,15.86
2023-10-04T09:59:12.643Z,15.88
2023-10-04T10:01:39.271Z,15.83
2023-10-04T10:04:08.201Z,15.85
2023-10-04T10:06:42.762Z,15.88
2023-10-04T10:09:09.376Z,15.92
2023-10-04T10:11:35.988Z,16.00
2023-10-04T10:14:02.671Z,15.99
2023-10-04T10:16:29.391Z,16.02
2023-10-04T10:18:56.130Z,16.15
2023-10-04T10:21:22.867Z,16.24
2023-10-04T10:23:56.449Z,16.24
2023-10-04T10:26:23.004Z,16.17
2023-10-04T10:28:56.815Z,16.17
2023-10-04T10:31:23.487Z,16.17
2023-10-04T10:33:50.199Z,16.13
2023-10-04T10:36:24.339Z,15.99
2023-10-04T10:38:54.155Z,15.84
2023-10-04T10:41:29.976Z,15.81
2023-10-04T10:44:17.977Z,15.81
2023-10-04T10:47:06.262Z,15.78
2023-10-04T10:49:38.667Z,15.82
2023-10-04T10:52:05.198Z,15.87
2023-10-04T10:54:31.870Z,16.02
2023-10-04T10:56:58.462Z,16.08
2023-10-04T10:59:25.010Z,16.17
2023-10-04T11:01:51.723Z,16.31
2023-10-04T11:04:18.361Z,16.37
2023-10-04T11:06:44.983Z,16.35
2023-10-04T11:09:11.606Z,16.29
2023-10-04T11:11:38.255Z,16.23
2023-10-04T11:14:05.141Z,16.23
2023-10-04T11:16:32.333Z,16.21
2023-10-04T11:18:59.127Z,16.17
2023-10-04T11:21:25.846Z,16.12
2023-10-04T11:23:52.437Z,16.13
2023-10-04T11:26:18.996Z,16.21
2023-10-04T11:28:45.530Z,16.29
2023-10-04T11:31:12.199Z,16.31
2023-10-04T11:33:54.585Z,16.33
2023-10-04T11:36:25.108Z,16.31
2023-10-04T11:38:52.076Z,16.43
2023-10-04T11:41:19.174Z,16.56
2023-10-04T11:43:45.810Z,16.66
2023-10-04T11:46:12.527Z,16.79
2023-10-04T11:48:39.244Z,16.96
2023-10-04T11:51:06.130Z,17.11
2023-10-04T11:53:37.197Z,17.27
2023-10-04T11:56:04.968Z,17.37
2023-10-04T11:58:31.588Z,17.44
2023-10-04T12:01:07.848Z,17.47
2023-10-04T12:03:35.752Z,17.68
2023-10-04T12:06:02.330Z,17.64
2023-10-04T12:08:29.887Z,17.62
2023-10-04T12:10:56.589Z,17.75
2023-10-04T12:13:23.611Z,17.91
2023-10-04T12:15:50.433Z,18.02
2023-10-04T12:18:17.253Z,18.18
2023-10-04T12:20:43.980Z,18.33
2023-10-04T12:23:10.569Z,18.34
2023-10-04T12:25:37.819Z,18.23
2023-10-04T12:28:04.750Z,17.97
2023-10-04T12:30:31.409Z,17.75
2023-10-04T12:32:58.095Z,17.59
2023-10-04T12:35:24.749Z,17.74
2023-10-04T12:37:51.302Z,17.58
2023-10-04T12:40:17.853Z,17.32
2023-10-04T12:42:45.976Z,17.21
2023-10-04T12:45:12.599Z,17.11
2023-10-04T12:47:39.136Z,16.96
2023-10-04T12:50:05.955Z,16.85
2023-10-04T12:52:33.011Z,16.84
2023-10-04T12:54:59.735Z,16.92
2023-10-04T12:57:26.428Z,16.94
2023-10-04T12:59:53.041Z,16.88
2023-10-04T13:02:19.637Z,16.91
2023-10-04T13:04:46.341Z,16.95
2023-10-04T13:07:13.229Z,16.93
2023-10-04T13:09:56.101Z,16.88
2023-10-04T13:12:24.805Z,16.78
2023-10-04T13:14:53.170Z,16.95
2023-10-04T13:17:22.005Z,17.25
2023-10-04T13:19:48.631Z,17.34
2023-10-04T13:22:15.219Z,17.70
2023-10-04T13:24:41.863Z,17.63
2023-10-04T13:27:08.472Z,17.52
2023-10-04T13:29:35.004Z,17.48
2023-10-04T13:32:01.627Z,17.64
2023-10-04T13:34:28.228Z,17.62
2023-10-04T13:36:56.719Z,17.42
2023-10-04T13:39:23.702Z,17.22
2023-10-04T13:41:50.373Z,17.09
2023-10-04T13:44:16.946Z,17.12
2023-10-04T13:46:43.545Z,17.06
2023-10-04T13:49:10.171Z,16.96
2023-10-04T13:51:36.813Z,16.89
2023-10-04T13:54:03.571Z,16.78
2023-10-04T13:56:30.199Z,16.80
2023-10-04T13:58:56.764Z,16.79
2023-10-04T14:01:23.478Z,16.75
2023-10-04T14:03:50.200Z,16.72
2023-10-04T14:06:16.808Z,16.74
2023-10-04T14:08:43.364Z,16.72
2023-10-04T14:11:09.929Z,16.70
2023-10-04T14:13:36.567Z,16.67
2023-10-04T14:16:03.236Z,16.62
2023-10-04T14:18:29.898Z,16.60
2023-10-04T14:20:56.464Z,16.58
2023-10-04T14:23:23.254Z,16.58
2023-10-04T14:25:49.835Z,16.57
2023-10-04T14:28:16.515Z,16.52
2023-10-04T14:30:43.095Z,16.48
2023-10-04T14:33:09.681Z,16.43
2023-10-04T14:35:36.276Z,16.38
2023-10-04T14:38:02.905Z,16.32
2023-10-04T14:40:32.784Z,16.26
2023-10-04T14:43:03.974Z,16.23
2023-10-04T14:45:30.639Z,16.20
2023-10-04T14:47:57.281Z,16.16
2023-10-04T14:50:23.862Z,16.15
2023-10-04T14:52:50.525Z,16.14
2023-10-04T14:55:17.098Z,16.11
2023-10-04T14:57:48.317Z,16.04
2023-10-04T15:00:15.472Z,16.01
2023-10-04T15:02:42.106Z,16.00
2023-10-04T15:05:09.041Z,16.02
2023-10-04T15:07:35.733Z,16.09
2023-10-04T15:10:02.441Z,16.14
2023-10-04T15:12:29.087Z,16.16
2023-10-04T15:14:56.557Z,16.16
2023-10-04T15:17:23.270Z,16.14
2023-10-04T15:19:49.846Z,16.13
2023-10-04T15:22:16.352Z,16.09
2023-10-04T15:24:43.004Z,16.02
2023-10-04T15:27:09.578Z,15.96
2023-10-04T15:29:36.467Z,15.95
2023-10-04T15:32:03.143Z,15.92
2023-10-04T15:34:29.770Z,15.87
2023-10-04T15:36:56.417Z,15.84
2023-10-04T15:39:23.088Z,15.80
2023-10-04T15:41:49.699Z,15.75
2023-10-04T15:44:16.692Z,15.69
2023-10-04T15:46:44.215Z,15.66
2023-10-04T15:49:11.114Z,15.64
2023-10-04T15:51:37.724Z,15.60
2023-10-04T15:54:04.713Z,15.55
2023-10-04T15:56:31.815Z,15.53
2023-10-04T15:58:58.464Z,15.53
2023-10-04T16:01:25.115Z,15.51
2023-10-04T16:03:51.930Z,15.48
2023-10-04T16:06:18.637Z,15.48
2023-10-04T16:08:45.230Z,15.46
2023-10-04T16:11:11.902Z,15.40
2023-10-04T16:13:38.774Z,15.44
2023-10-04T16:16:05.458Z,15.43
2023-10-04T16:18:32.233Z,15.38
2023-10-04T16:20:58.946Z,15.36
2023-10-04T16:23:25.669Z,15.32
2023-10-04T16:25:52.243Z,15.26
2023-10-04T16:28:18.849Z,15.21
2023-10-04T16:30:45.424Z,15.20
2023-10-04T16:33:12.050Z,15.19
2023-10-04T16:35:38.672Z,15.21
2023-10-04T16:38:05.353Z,15.21
2023-10-04T16:40:31.926Z,15.17
2023-10-04T16:42:58.483Z,15.13
2023-10-04T16:45:25.149Z,15.10
2023-10-04T16:47:51.741Z,15.07
2023-10-04T16:50:19.737Z,15.06
2023-10-04T16:52:51.786Z,15.04
2023-10-04T16:55:18.454Z,14.99
2023-10-04T16:57:45.150Z,14.98
2023-10-04T17:00:12.397Z,14.96
2023-10-04T17:02:39.013Z,14.94
2023-10-04T17:05:06.272Z,14.90
2023-10-04T17:07:33.347Z,14.88
2023-10-04T17:09:59.980Z,14.87
2023-10-04T17:12:26.734Z,14.84
2023-10-04T17:14:53.385Z,14.87
2023-10-04T17:17:19.993Z,14.83
2023-10-04T17:19:49.299Z,14.79
2023-10-04T17:22:16.035Z,14.74
2023-10-04T17:24:42.919Z,14.71
2023-10-04T17:27:09.525Z,14.71
2023-10-04T17:29:36.112Z,14.69
2023-10-04T17:32:02.730Z,14.69
2023-10-04T17:34:29.260Z,14.71
2023-10-04T17:36:55.865Z,14.69
2023-10-04T17:39:22.426Z,14.67
2023-10-04T17:41:48.993Z,14.67
2023-10-04T17:44:16.237Z,14.66
2023-10-04T17:46:43.033Z,14.63
2023-10-04T17:49:09.923Z,14.64
2023-10-04T17:51:36.645Z,14.59
2023-10-04T17:54:03.589Z,14.54
2023-10-04T17:56:30.407Z,14.53
2023-10-04T17:58:57.032Z,14.51
2023-10-04T18:01:23.777Z,14.50
2023-10-04T18:03:50.339Z,14.47
2023-10-04T18:06:16.997Z,14.45
2023-10-04T18:08:43.690Z,14.44
2023-10-04T18:11:10.256Z,14.44
2023-10-04T18:13:36.859Z,14.48
2023-10-04T18:16:03.470Z,14.47
2023-10-04T18:18:30.698Z,14.49
2023-10-04T18:20:57.382Z,14.49
2023-10-04T18:23:23.924Z,14.48
2023-10-04T18:25:50.666Z,14.43
2023-10-04T18:28:17.293Z,14.42
2023-10-04T18:30:43.930Z,14.40
2023-10-04T18:33:10.639Z,14.37
2023-10-04T18:35:37.324Z,14.40
2023-10-04T18:38:03.959Z,14.37
2023-10-04T18:40:30.532Z,14.40
2023-10-04T18:42:57.154Z,14.43
2023-10-04T18:45:23.774Z,14.41
2023-10-04T18:47:50.464Z,14.39
2023-10-04T18:50:17.118Z,14.36
2023-10-04T18:52:43.740Z,14.32
2023-10-04T18:55:10.648Z,14.32
2023-10-04T18:57:37.343Z,14.27
2023-10-04T19:00:04.702Z,14.28
2023-10-04T19:02:31.341Z,14.26
2023-10-04T19:05:05.970Z,14.22
2023-10-04T19:07:33.721Z,14.17
2023-10-04T19:10:00.521Z,14.18
2023-10-04T19:12:27.117Z,14.18
2023-10-04T19:14:53.699Z,14.22
2023-10-04T19:17:20.261Z,14.20
2023-10-04T19:19:46.874Z,14.15
2023-10-04T19:22:13.477Z,14.12
2023-10-04T19:24:40.063Z,14.20
2023-10-04T19:27:06.669Z,14.17
2023-10-04T19:29:33.301Z,14.15
2023-10-04T19:31:59.880Z,14.14
2023-10-04T19:34:26.527Z,14.15
2023-10-04T19:36:53.184Z,14.14
2023-10-04T19:39:19.798Z,14.13
2023-10-04T19:41:46.558Z,14.06
2023-10-04T19:44:13.161Z,14.02
2023-10-04T19:46:39.787Z,14.02
2023-10-04T19:49:06.381Z,14.02
2023-10-04T19:51:32.946Z,13.98
2023-10-04T19:53:59.488Z,13.97
2023-10-04T19:56:26.020Z,13.93
2023-10-04T19:58:52.679Z,13.93
2023-10-04T20:01:19.366Z,13.91
2023-10-04T20:03:46.100Z,13.90
2023-10-04T20:06:12.788Z,13.88
2023-10-04T20:08:39.369Z,13.95
2023-10-04T20:11:06.003Z,13.91
2023-10-04T20:13:32.702Z,13.85
2023-10-04T20:15:59.397Z,13.91
2023-10-04T20:18:26.023Z,13.90
2023-10-04T20:20:52.608Z,13.82
2023-10-04T20:23:19.180Z,13.83
2023-10-04T20:25:45.758Z,13.78
2023-10-04T20:28:12.458Z,13.80
2023-10-04T20:30:41.885Z,13.75
2023-10-04T20:33:08.567Z,13.74
2023-10-04T20:35:35.193Z,13.72
2023-10-04T20:38:01.827Z,13.73
2023-10-04T20:40:28.390Z,13.72
2023-10-04T20:42:55.032Z,13.70
2023-10-04T20:45:21.641Z,13.63
2023-10-04T20:47:48.217Z,13.66
2023-10-04T20:50:14.958Z,13.62
2023-10-04T20:52:41.543Z,13.67
2023-10-04T20:55:08.549Z,13.59
2023-10-04T20:57:35.337Z,13.59
2023-10-04T21:00:02.286Z,13.55
2023-10-04T21:02:28.879Z,13.54
2023-10-04T21:04:55.716Z,13.53
2023-10-04T21:07:22.323Z,13.50
2023-10-04T21:09:49.463Z,13.48
2023-10-04T21:12:16.184Z,13.52
2023-10-04T21:14:42.780Z,13.58
2023-10-04T21:17:09.333Z,13.50
2023-10-04T21:19:35.949Z,13.48
2023-10-04T21:22:03.271Z,13.47
2023-10-04T21:24:30.012Z,13.48
2023-10-04T21:26:56.588Z,13.50
2023-10-04T21:29:23.155Z,13.50
2023-10-04T21:31:49.771Z,13.48
2023-10-04T21:34:16.829Z,13.50
2023-10-04T21:36:43.462Z,13.47
2023-10-04T21:39:10.024Z,13.47
2023-10-04T21:41:36.623Z,13.46
2023-10-04T21:44:04.066Z,13.48
2023-10-04T21:46:31.029Z,13.49
2023-10-04T21:48:57.742Z,13.51
2023-10-04T21:51:24.381Z,13.45
2023-10-04T21:53:50.969Z,13.39
2023-10-04T21:56:17.589Z,13.36
2023-10-04T21:58:44.155Z,13.34
2023-10-04T22:01:10.997Z,13.30
2023-10-04T22:03:37.815Z,13.33
2023-10-04T22:06:04.664Z,13.29
2023-10-04T22:08:31.186Z,13.28
2023-10-04T22:10:57.784Z,13.28
2023-10-04T22:13:24.423Z,13.30
2023-10-04T22:15:54.105Z,13.29
2023-10-04T22:18:20.736Z,13.28
2023-10-04T22:20:47.421Z,13.28
2023-10-04T22:23:14.509Z,13.29
2023-10-04T22:25:41.457Z,13.24
2023-10-04T22:28:08.098Z,13.25
2023-10-04T22:30:34.780Z,13.30
2023-10-04T22:33:01.527Z,13.32
2023-10-04T22:35:28.213Z,13.32
2023-10-04T22:37:54.763Z,13.34
2023-10-04T22:40:21.379Z,13.37
2023-10-04T22:42:47.996Z,13.34
2023-10-04T22:45:14.725Z,13.38
2023-10-04T22:47:48.212Z,13.39
2023-10-04T22:50:17.604Z,13.41
2023-10-04T22:52:44.409Z,13.41
2023-10-04T22:55:11.731Z,13.46
2023-10-04T22:57:38.362Z,13.47
2023-10-04T23:00:08.376Z,13.45
2023-10-04T23:02:35.027Z,13.44
2023-10-04T23:05:01.675Z,13.46
2023-10-04T23:07:28.261Z,13.42
2023-10-04T23:09:54.926Z,13.38
2023-10-04T23:12:21.510Z,13.38
2023-10-04T23:14:48.085Z,13.32
2023-10-04T23:17:14.687Z,13.33
2023-10-04T23:19:41.271Z,13.30
2023-10-04T23:22:07.890Z,13.26
2023-10-04T23:24:34.496Z,13.27
2023-10-04T23:27:01.116Z,13.28
2023-10-04T23:29:27.906Z,13.29
2023-10-04T23:31:54.493Z,13.28
2023-10-04T23:34:21.082Z,13.30
2023-10-04T23:36:47.731Z,13.29
2023-10-04T23:39:14.675Z,13.29
2023-10-04T23:41:41.990Z,13.31
2023-10-04T23:44:08.528Z,13.30
2023-10-04T23:46:35.212Z,13.31
2023-10-04T23:49:01.992Z,13.33
2023-10-04T23:51:28.595Z,13.33
2023-10-04T23:53:55.145Z,13.34
2023-10-04T23:56:21.689Z,13.34
2023-10-04T23:58:48.364Z,13.33
